sensor_id;sensor_type;location;lat;lon;timestamp;temperature;humidity
64499;SHT31;51087;55.718;21.122;2023-06-05T00:00:31;7.87;98.71
64499;SHT31;51087;55.718;21.122;2023-06-05T00:02:56;7.83;98.93
64499;SHT31;51087;55.718;21.122;2023-06-05T00:05:22;7.85;98.50
64499;SHT31;51087;55.718;21.122;2023-06-05T00:07:51;7.85;98.34
64499;SHT31;51087;55.718;21.122;2023-06-05T00:10:17;7.73;98.68
64499;SHT31;51087;55.718;21.122;2023-06-05T00:12:42;7.70;98.69
64499;SHT31;51087;55.718;21.122;2023-06-05T00:15:09;7.68;98.95
64499;SHT31;51087;55.718;21.122;2023-06-05T00:17:35;7.65;99.01
64499;SHT31;51087;55.718;21.122;2023-06-05T00:20:02;7.62;99.13
64499;SHT31;51087;55.718;21.122;2023-06-05T00:22:28;7.56;99.11
64499;SHT31;51087;55.718;21.122;2023-06-05T00:24:54;7.55;98.93
64499;SHT31;51087;55.718;21.122;2023-06-05T00:27:19;7.62;98.30
64499;SHT31;51087;55.718;21.122;2023-06-05T00:29:45;7.58;98.44
64499;SHT31;51087;55.718;21.122;2023-06-05T00:32:10;7.55;98.56
64499;SHT31;51087;55.718;21.122;2023-06-05T00:34:36;7.56;98.79
64499;SHT31;51087;55.718;21.122;2023-06-05T00:37:02;7.56;98.80
64499;SHT31;51087;55.718;21.122;2023-06-05T00:39:27;7.48;98.89
64499;SHT31;51087;55.718;21.122;2023-06-05T00:41:53;7.41;99.04
64499;SHT31;51087;55.718;21.122;2023-06-05T00:44:19;7.35;99.06
64499;SHT31;51087;55.718;21.122;2023-06-05T00:46:44;7.38;99.01
64499;SHT31;51087;55.718;21.122;2023-06-05T00:49:12;7.36;99.23
64499;SHT31;51087;55.718;21.122;2023-06-05T00:51:39;7.44;99.02
64499;SHT31;51087;55.718;21.122;2023-06-05T00:54:07;7.36;99.00
64499;SHT31;51087;55.718;21.122;2023-06-05T00:56:32;7.39;98.98
64499;SHT31;51087;55.718;21.122;2023-06-05T00:59:01;7.48;98.66
64499;SHT31;51087;55.718;21.122;2023-06-05T01:01:26;7.54;98.26
64499;SHT31;51087;55.718;21.122;2023-06-05T01:03:57;7.66;97.88
64499;SHT31;51087;55.718;21.122;2023-06-05T01:06:27;7.59;97.68
64499;SHT31;51087;55.718;21.122;2023-06-05T01:08:53;7.52;97.97
64499;SHT31;51087;55.718;21.122;2023-06-05T01:14:14;7.39;98.11
64499;SHT31;51087;55.718;21.122;2023-06-05T01:16:42;7.34;98.30
64499;SHT31;51087;55.718;21.122;2023-06-05T01:19:13;7.25;98.46
64499;SHT31;51087;55.718;21.122;2023-06-05T01:21:39;7.18;98.30
64499;SHT31;51087;55.718;21.122;2023-06-05T01:24:05;7.20;98.18
64499;SHT31;51087;55.718;21.122;2023-06-05T01:26:39;7.21;97.85
64499;SHT31;51087;55.718;21.122;2023-06-05T01:29:11;7.14;97.52
64499;SHT31;51087;55.718;21.122;2023-06-05T01:31:42;7.18;97.57
64499;SHT31;51087;55.718;21.122;2023-06-05T01:34:10;7.17;97.43
64499;SHT31;51087;55.718;21.122;2023-06-05T01:36:39;7.14;97.44
64499;SHT31;51087;55.718;21.122;2023-06-05T01:39:06;7.13;97.54
64499;SHT31;51087;55.718;21.122;2023-06-05T01:41:32;7.10;97.74
64499;SHT31;51087;55.718;21.122;2023-06-05T01:43:59;7.07;97.73
64499;SHT31;51087;55.718;21.122;2023-06-05T01:46:26;7.01;98.13
64499;SHT31;51087;55.718;21.122;2023-06-05T01:48:52;7.08;97.99
64499;SHT31;51087;55.718;21.122;2023-06-05T01:51:19;7.03;97.98
64499;SHT31;51087;55.718;21.122;2023-06-05T01:53:45;7.00;98.00
64499;SHT31;51087;55.718;21.122;2023-06-05T01:56:14;7.00;98.26
64499;SHT31;51087;55.718;21.122;2023-06-05T01:58:45;7.01;98.27
64499;SHT31;51087;55.718;21.122;2023-06-05T02:01:11;7.01;98.15
64499;SHT31;51087;55.718;21.122;2023-06-05T02:03:36;7.01;98.20
64499;SHT31;51087;55.718;21.122;2023-06-05T02:06:03;7.03;98.26
64499;SHT31;51087;55.718;21.122;2023-06-05T02:08:28;6.99;98.20
64499;SHT31;51087;55.718;21.122;2023-06-05T02:10:54;7.00;98.18
64499;SHT31;51087;55.718;21.122;2023-06-05T02:13:19;7.08;97.92
64499;SHT31;51087;55.718;21.122;2023-06-05T02:15:45;7.08;97.98
64499;SHT31;51087;55.718;21.122;2023-06-05T02:18:11;7.05;98.09
64499;SHT31;51087;55.718;21.122;2023-06-05T02:20:40;7.00;98.38
64499;SHT31;51087;55.718;21.122;2023-06-05T02:23:05;7.00;98.21
64499;SHT31;51087;55.718;21.122;2023-06-05T02:25:32;6.99;98.50
64499;SHT31;51087;55.718;21.122;2023-06-05T02:27:57;6.99;98.37
64499;SHT31;51087;55.718;21.122;2023-06-05T02:30:23;6.99;98.42
64499;SHT31;51087;55.718;21.122;2023-06-05T02:32:50;6.96;98.64
64499;SHT31;51087;55.718;21.122;2023-06-05T02:35:21;6.94;98.75
64499;SHT31;51087;55.718;21.122;2023-06-05T02:37:47;7.03;98.72
64499;SHT31;51087;55.718;21.122;2023-06-05T02:40:13;6.94;98.70
64499;SHT31;51087;55.718;21.122;2023-06-05T02:42:40;6.93;98.85
64499;SHT31;51087;55.718;21.122;2023-06-05T02:45:06;6.99;98.90
64499;SHT31;51087;55.718;21.122;2023-06-05T02:47:32;6.94;99.04
64499;SHT31;51087;55.718;21.122;2023-06-05T02:49:58;6.97;99.08
64499;SHT31;51087;55.718;21.122;2023-06-05T02:52:24;7.07;98.87
64499;SHT31;51087;55.718;21.122;2023-06-05T02:54:50;7.21;98.46
64499;SHT31;51087;55.718;21.122;2023-06-05T02:57:16;7.31;98.01
64499;SHT31;51087;55.718;21.122;2023-06-05T02:59:43;7.34;97.83
64499;SHT31;51087;55.718;21.122;2023-06-05T03:02:09;7.38;97.65
64499;SHT31;51087;55.718;21.122;2023-06-05T03:04:34;7.38;97.71
64499;SHT31;51087;55.718;21.122;2023-06-05T03:07:00;7.36;97.65
64499;SHT31;51087;55.718;21.122;2023-06-05T03:09:30;7.44;97.24
64499;SHT31;51087;55.718;21.122;2023-06-05T03:11:56;7.44;97.14
64499;SHT31;51087;55.718;21.122;2023-06-05T03:14:21;7.44;96.82
64499;SHT31;51087;55.718;21.122;2023-06-05T03:16:47;7.45;96.76
64499;SHT31;51087;55.718;21.122;2023-06-05T03:19:12;7.44;96.85
64499;SHT31;51087;55.718;21.122;2023-06-05T03:21:38;7.41;96.81
64499;SHT31;51087;55.718;21.122;2023-06-05T03:24:09;7.48;96.83
64499;SHT31;51087;55.718;21.122;2023-06-05T03:26:36;7.48;96.86
64499;SHT31;51087;55.718;21.122;2023-06-05T03:29:02;7.48;96.87
64499;SHT31;51087;55.718;21.122;2023-06-05T03:31:27;7.49;97.03
64499;SHT31;51087;55.718;21.122;2023-06-05T03:33:53;7.58;96.71
64499;SHT31;51087;55.718;21.122;2023-06-05T03:36:18;7.68;96.24
64499;SHT31;51087;55.718;21.122;2023-06-05T03:38:44;7.73;96.31
64499;SHT31;51087;55.718;21.122;2023-06-05T03:41:11;7.80;96.23
64499;SHT31;51087;55.718;21.122;2023-06-05T03:43:36;7.86;96.16
64499;SHT31;51087;55.718;21.122;2023-06-05T03:46:02;7.97;95.94
64499;SHT31;51087;55.718;21.122;2023-06-05T03:48:27;8.07;95.30
64499;SHT31;51087;55.718;21.122;2023-06-05T03:50:53;8.15;95.11
64499;SHT31;51087;55.718;21.122;2023-06-05T03:53:19;8.25;94.94
64499;SHT31;51087;55.718;21.122;2023-06-05T03:55:44;8.44;94.25
64499;SHT31;51087;55.718;21.122;2023-06-05T03:58:12;8.75;93.29
64499;SHT31;51087;55.718;21.122;2023-06-05T04:00:47;8.90;91.66
64499;SHT31;51087;55.718;21.122;2023-06-05T04:03:16;9.01;90.93
64499;SHT31;51087;55.718;21.122;2023-06-05T04:05:42;9.13;90.98
64499;SHT31;51087;55.718;21.122;2023-06-05T04:08:09;9.16;90.40
64499;SHT31;51087;55.718;21.122;2023-06-05T04:10:35;9.24;89.11
64499;SHT31;51087;55.718;21.122;2023-06-05T04:13:01;9.31;89.03
64499;SHT31;51087;55.718;21.122;2023-06-05T04:15:27;9.37;89.43
64499;SHT31;51087;55.718;21.122;2023-06-05T04:17:52;9.38;88.86
64499;SHT31;51087;55.718;21.122;2023-06-05T04:20:18;9.44;88.71
64499;SHT31;51087;55.718;21.122;2023-06-05T04:22:44;9.48;87.85
64499;SHT31;51087;55.718;21.122;2023-06-05T04:25:13;9.58;87.32
64499;SHT31;51087;55.718;21.122;2023-06-05T04:27:40;9.65;86.50
64499;SHT31;51087;55.718;21.122;2023-06-05T04:30:07;9.66;86.18
64499;SHT31;51087;55.718;21.122;2023-06-05T04:32:34;9.75;85.27
64499;SHT31;51087;55.718;21.122;2023-06-05T04:35:00;9.86;85.04
64499;SHT31;51087;55.718;21.122;2023-06-05T04:37:25;9.92;84.90
64499;SHT31;51087;55.718;21.122;2023-06-05T04:39:51;9.94;85.03
64499;SHT31;51087;55.718;21.122;2023-06-05T04:42:17;9.93;84.09
64499;SHT31;51087;55.718;21.122;2023-06-05T04:44:43;9.97;83.41
64499;SHT31;51087;55.718;21.122;2023-06-05T04:47:08;10.00;82.87
64499;SHT31;51087;55.718;21.122;2023-06-05T04:49:34;10.04;82.83
64499;SHT31;51087;55.718;21.122;2023-06-05T04:52:00;10.07;83.23
64499;SHT31;51087;55.718;21.122;2023-06-05T04:54:25;10.11;82.63
64499;SHT31;51087;55.718;21.122;2023-06-05T04:56:51;10.21;82.36
64499;SHT31;51087;55.718;21.122;2023-06-05T04:59:17;10.34;82.53
64499;SHT31;51087;55.718;21.122;2023-06-05T05:01:43;10.58;82.33
64499;SHT31;51087;55.718;21.122;2023-06-05T05:04:09;10.82;80.67
64499;SHT31;51087;55.718;21.122;2023-06-05T05:06:34;11.00;79.72
64499;SHT31;51087;55.718;21.122;2023-06-05T05:09:00;11.22;77.13
64499;SHT31;51087;55.718;21.122;2023-06-05T05:11:25;11.37;76.57
64499;SHT31;51087;55.718;21.122;2023-06-05T05:13:52;11.57;73.88
64499;SHT31;51087;55.718;21.122;2023-06-05T05:16:17;11.69;72.98
64499;SHT31;51087;55.718;21.122;2023-06-05T05:18:44;11.83;70.74
64499;SHT31;51087;55.718;21.122;2023-06-05T05:21:09;11.95;68.69
64499;SHT31;51087;55.718;21.122;2023-06-05T05:23:35;12.07;65.43
64499;SHT31;51087;55.718;21.122;2023-06-05T05:26:01;12.20;66.99
64499;SHT31;51087;55.718;21.122;2023-06-05T05:28:28;12.22;67.53
64499;SHT31;51087;55.718;21.122;2023-06-05T05:30:53;12.22;66.95
64499;SHT31;51087;55.718;21.122;2023-06-05T05:33:21;12.27;67.21
64499;SHT31;51087;55.718;21.122;2023-06-05T05:35:47;12.32;64.74
64499;SHT31;51087;55.718;21.122;2023-06-05T05:38:12;12.41;64.54
64499;SHT31;51087;55.718;21.122;2023-06-05T05:40:38;12.43;64.60
64499;SHT31;51087;55.718;21.122;2023-06-05T05:43:03;12.44;63.56
64499;SHT31;51087;55.718;21.122;2023-06-05T05:45:29;12.48;63.22
64499;SHT31;51087;55.718;21.122;2023-06-05T05:47:54;12.57;63.06
64499;SHT31;51087;55.718;21.122;2023-06-05T05:50:19;12.68;62.24
64499;SHT31;51087;55.718;21.122;2023-06-05T05:52:45;12.75;63.64
64499;SHT31;51087;55.718;21.122;2023-06-05T05:55:12;12.80;65.10
64499;SHT31;51087;55.718;21.122;2023-06-05T05:57:38;12.89;64.16
64499;SHT31;51087;55.718;21.122;2023-06-05T06:00:04;13.01;63.37
64499;SHT31;51087;55.718;21.122;2023-06-05T06:02:37;13.10;63.35
64499;SHT31;51087;55.718;21.122;2023-06-05T06:05:02;13.15;62.21
64499;SHT31;51087;55.718;21.122;2023-06-05T06:07:49;13.23;60.83
64499;SHT31;51087;55.718;21.122;2023-06-05T06:10:14;13.30;60.11
64499;SHT31;51087;55.718;21.122;2023-06-05T06:12:40;13.36;60.50
64499;SHT31;51087;55.718;21.122;2023-06-05T06:15:07;13.47;58.89
64499;SHT31;51087;55.718;21.122;2023-06-05T06:17:33;13.54;59.87
64499;SHT31;51087;55.718;21.122;2023-06-05T06:19:58;13.53;58.57
64499;SHT31;51087;55.718;21.122;2023-06-05T06:22:24;13.60;59.59
64499;SHT31;51087;55.718;21.122;2023-06-05T06:24:49;13.68;58.32
64499;SHT31;51087;55.718;21.122;2023-06-05T06:27:17;13.77;58.26
64499;SHT31;51087;55.718;21.122;2023-06-05T06:29:50;13.88;58.70
64499;SHT31;51087;55.718;21.122;2023-06-05T06:32:19;13.95;57.81
64499;SHT31;51087;55.718;21.122;2023-06-05T06:34:44;14.13;55.51
64499;SHT31;51087;55.718;21.122;2023-06-05T06:37:12;14.19;55.80
64499;SHT31;51087;55.718;21.122;2023-06-05T06:39:40;14.21;55.80
64499;SHT31;51087;55.718;21.122;2023-06-05T06:42:06;14.25;57.42
64499;SHT31;51087;55.718;21.122;2023-06-05T06:44:31;14.39;55.47
64499;SHT31;51087;55.718;21.122;2023-06-05T06:46:57;14.46;56.51
64499;SHT31;51087;55.718;21.122;2023-06-05T06:49:22;14.53;55.25
64499;SHT31;51087;55.718;21.122;2023-06-05T06:51:47;14.55;55.17
64499;SHT31;51087;55.718;21.122;2023-06-05T06:54:14;14.66;55.07
64499;SHT31;51087;55.718;21.122;2023-06-05T06:56:40;14.68;53.11
64499;SHT31;51087;55.718;21.122;2023-06-05T06:59:12;14.70;53.10
64499;SHT31;51087;55.718;21.122;2023-06-05T07:01:43;14.74;53.60
64499;SHT31;51087;55.718;21.122;2023-06-05T07:04:09;14.83;53.39
64499;SHT31;51087;55.718;21.122;2023-06-05T07:06:34;14.81;52.75
64499;SHT31;51087;55.718;21.122;2023-06-05T07:09:00;14.83;52.94
64499;SHT31;51087;55.718;21.122;2023-06-05T07:11:25;14.89;52.09
64499;SHT31;51087;55.718;21.122;2023-06-05T07:13:51;14.30;63.16
64499;SHT31;51087;55.718;21.122;2023-06-05T07:16:18;13.58;65.02
64499;SHT31;51087;55.718;21.122;2023-06-05T07:18:43;13.24;66.01
64499;SHT31;51087;55.718;21.122;2023-06-05T07:21:09;13.33;65.14
64499;SHT31;51087;55.718;21.122;2023-06-05T07:23:34;13.32;65.30
64499;SHT31;51087;55.718;21.122;2023-06-05T07:26:00;13.27;66.41
64499;SHT31;51087;55.718;21.122;2023-06-05T07:28:25;13.16;66.40
64499;SHT31;51087;55.718;21.122;2023-06-05T07:30:51;13.18;65.78
64499;SHT31;51087;55.718;21.122;2023-06-05T07:33:16;13.13;65.48
64499;SHT31;51087;55.718;21.122;2023-06-05T07:35:42;13.01;68.91
64499;SHT31;51087;55.718;21.122;2023-06-05T07:38:08;12.91;67.30
64499;SHT31;51087;55.718;21.122;2023-06-05T07:40:34;13.18;66.55
64499;SHT31;51087;55.718;21.122;2023-06-05T07:42:59;13.16;67.30
64499;SHT31;51087;55.718;21.122;2023-06-05T07:45:25;13.24;68.66
64499;SHT31;51087;55.718;21.122;2023-06-05T07:47:50;13.16;68.12
64499;SHT31;51087;55.718;21.122;2023-06-05T07:50:16;13.06;70.06
64499;SHT31;51087;55.718;21.122;2023-06-05T07:52:41;13.19;68.86
64499;SHT31;51087;55.718;21.122;2023-06-05T07:55:07;13.20;68.35
64499;SHT31;51087;55.718;21.122;2023-06-05T07:57:33;13.30;67.43
64499;SHT31;51087;55.718;21.122;2023-06-05T07:59:58;13.10;68.12
64499;SHT31;51087;55.718;21.122;2023-06-05T08:02:24;13.29;67.84
64499;SHT31;51087;55.718;21.122;2023-06-05T08:04:49;13.53;65.80
64499;SHT31;51087;55.718;21.122;2023-06-05T08:07:15;13.33;66.82
64499;SHT31;51087;55.718;21.122;2023-06-05T08:09:41;13.40;66.44
64499;SHT31;51087;55.718;21.122;2023-06-05T08:12:07;13.75;65.42
64499;SHT31;51087;55.718;21.122;2023-06-05T08:14:34;13.74;64.10
64499;SHT31;51087;55.718;21.122;2023-06-05T08:16:59;13.85;62.85
64499;SHT31;51087;55.718;21.122;2023-06-05T08:19:25;14.00;62.31
64499;SHT31;51087;55.718;21.122;2023-06-05T08:21:52;13.88;63.12
64499;SHT31;51087;55.718;21.122;2023-06-05T08:24:22;14.19;63.41
64499;SHT31;51087;55.718;21.122;2023-06-05T08:26:47;14.02;63.83
64499;SHT31;51087;55.718;21.122;2023-06-05T08:29:12;14.08;62.51
64499;SHT31;51087;55.718;21.122;2023-06-05T08:31:38;14.16;61.84
64499;SHT31;51087;55.718;21.122;2023-06-05T08:34:06;14.18;62.36
64499;SHT31;51087;55.718;21.122;2023-06-05T08:36:32;13.92;62.08
64499;SHT31;51087;55.718;21.122;2023-06-05T08:38:59;14.04;63.25
64499;SHT31;51087;55.718;21.122;2023-06-05T08:41:25;14.28;62.52
64499;SHT31;51087;55.718;21.122;2023-06-05T08:43:50;14.18;62.46
64499;SHT31;51087;55.718;21.122;2023-06-05T08:46:17;14.00;63.73
64499;SHT31;51087;55.718;21.122;2023-06-05T08:48:43;14.16;62.61
64499;SHT31;51087;55.718;21.122;2023-06-05T08:51:11;14.29;62.43
64499;SHT31;51087;55.718;21.122;2023-06-05T08:53:39;14.40;62.90
64499;SHT31;51087;55.718;21.122;2023-06-05T08:56:06;14.37;63.55
64499;SHT31;51087;55.718;21.122;2023-06-05T08:58:32;14.21;64.39
64499;SHT31;51087;55.718;21.122;2023-06-05T09:00:58;14.56;65.71
64499;SHT31;51087;55.718;21.122;2023-06-05T09:03:23;14.25;66.35
64499;SHT31;51087;55.718;21.122;2023-06-05T09:05:52;14.13;65.11
64499;SHT31;51087;55.718;21.122;2023-06-05T09:08:19;14.22;64.00
64499;SHT31;51087;55.718;21.122;2023-06-05T09:10:49;14.44;65.73
64499;SHT31;51087;55.718;21.122;2023-06-05T09:13:14;14.53;64.60
64499;SHT31;51087;55.718;21.122;2023-06-05T09:15:40;15.08;62.97
64499;SHT31;51087;55.718;21.122;2023-06-05T09:18:10;15.15;61.73
64499;SHT31;51087;55.718;21.122;2023-06-05T09:20:45;14.78;61.29
64499;SHT31;51087;55.718;21.122;2023-06-05T09:23:25;14.94;62.59
64499;SHT31;51087;55.718;21.122;2023-06-05T09:25:53;15.15;62.20
64499;SHT31;51087;55.718;21.122;2023-06-05T09:28:19;14.99;63.20
64499;SHT31;51087;55.718;21.122;2023-06-05T09:31:13;14.59;64.68
64499;SHT31;51087;55.718;21.122;2023-06-05T09:33:39;14.26;64.35
64499;SHT31;51087;55.718;21.122;2023-06-05T09:38:30;14.97;63.20
64499;SHT31;51087;55.718;21.122;2023-06-05T09:41:07;15.09;64.12
64499;SHT31;51087;55.718;21.122;2023-06-05T09:43:33;14.99;64.09
64499;SHT31;51087;55.718;21.122;2023-06-05T09:46:05;15.38;62.26
64499;SHT31;51087;55.718;21.122;2023-06-05T09:48:31;16.21;60.15
64499;SHT31;51087;55.718;21.122;2023-06-05T09:51:11;20.16;52.16
64499;SHT31;51087;55.718;21.122;2023-06-05T09:53:49;21.16;48.70
64499;SHT31;51087;55.718;21.122;2023-06-05T09:56:17;21.99;45.80
64499;SHT31;51087;55.718;21.122;2023-06-05T09:58:51;21.84;46.20
64499;SHT31;51087;55.718;21.122;2023-06-05T10:01:18;22.19;45.33
64499;SHT31;51087;55.718;21.122;2023-06-05T10:03:52;22.71;43.75
64499;SHT31;51087;55.718;21.122;2023-06-05T10:06:21;23.08;42.80
64499;SHT31;51087;55.718;21.122;2023-06-05T10:08:50;23.09;41.49
64499;SHT31;51087;55.718;21.122;2023-06-05T10:11:19;24.37;39.71
64499;SHT31;51087;55.718;21.122;2023-06-05T10:13:45;23.90;41.28
64499;SHT31;51087;55.718;21.122;2023-06-05T10:16:12;24.36;40.71
64499;SHT31;51087;55.718;21.122;2023-06-05T10:18:38;24.59;40.58
64499;SHT31;51087;55.718;21.122;2023-06-05T10:21:04;24.07;40.73
64499;SHT31;51087;55.718;21.122;2023-06-05T10:23:30;24.21;40.14
64499;SHT31;51087;55.718;21.122;2023-06-05T10:25:56;24.25;40.86
64499;SHT31;51087;55.718;21.122;2023-06-05T10:28:50;25.10;39.27
64499;SHT31;51087;55.718;21.122;2023-06-05T10:31:28;24.69;38.33
64499;SHT31;51087;55.718;21.122;2023-06-05T10:39:16;26.20;37.28
64499;SHT31;51087;55.718;21.122;2023-06-05T10:41:42;26.47;36.65
64499;SHT31;51087;55.718;21.122;2023-06-05T10:44:08;26.05;38.05
64499;SHT31;51087;55.718;21.122;2023-06-05T10:46:35;28.30;34.68
64499;SHT31;51087;55.718;21.122;2023-06-05T10:49:07;26.17;36.69
64499;SHT31;51087;55.718;21.122;2023-06-05T10:51:34;25.45;39.30
64499;SHT31;51087;55.718;21.122;2023-06-05T10:54:04;26.56;37.80
64499;SHT31;51087;55.718;21.122;2023-06-05T11:02:21;26.80;37.59
64499;SHT31;51087;55.718;21.122;2023-06-05T11:15:15;30.28;31.18
64499;SHT31;51087;55.718;21.122;2023-06-05T11:17:41;28.54;33.89
64499;SHT31;51087;55.718;21.122;2023-06-05T11:20:48;27.85;34.41
64499;SHT31;51087;55.718;21.122;2023-06-05T11:30:17;26.83;36.06
64499;SHT31;51087;55.718;21.122;2023-06-05T11:32:43;27.72;33.95
64499;SHT31;51087;55.718;21.122;2023-06-05T11:35:09;27.20;35.09
64499;SHT31;51087;55.718;21.122;2023-06-05T11:37:34;28.54;34.39
64499;SHT31;51087;55.718;21.122;2023-06-05T11:40:04;29.03;32.75
64499;SHT31;51087;55.718;21.122;2023-06-05T11:42:39;29.53;31.61
64499;SHT31;51087;55.718;21.122;2023-06-05T11:45:12;30.52;30.28
64499;SHT31;51087;55.718;21.122;2023-06-05T11:47:38;30.01;32.23
64499;SHT31;51087;55.718;21.122;2023-06-05T11:50:07;27.65;33.43
64499;SHT31;51087;55.718;21.122;2023-06-05T11:52:36;27.77;34.25
64499;SHT31;51087;55.718;21.122;2023-06-05T11:55:18;27.72;33.81
64499;SHT31;51087;55.718;21.122;2023-06-05T11:57:47;28.60;32.39
64499;SHT31;51087;55.718;21.122;2023-06-05T12:00:14;28.53;31.91
64499;SHT31;51087;55.718;21.122;2023-06-05T12:02:43;27.66;33.80
64499;SHT31;51087;55.718;21.122;2023-06-05T12:05:09;29.54;31.52
64499;SHT31;51087;55.718;21.122;2023-06-05T12:07:35;29.20;32.41
64499;SHT31;51087;55.718;21.122;2023-06-05T12:10:05;29.75;31.38
64499;SHT31;51087;55.718;21.122;2023-06-05T12:12:53;30.23;30.33
64499;SHT31;51087;55.718;21.122;2023-06-05T12:15:20;29.18;31.61
64499;SHT31;51087;55.718;21.122;2023-06-05T12:17:53;29.78;31.22
64499;SHT31;51087;55.718;21.122;2023-06-05T12:20:19;28.06;33.21
64499;SHT31;51087;55.718;21.122;2023-06-05T12:22:45;28.95;30.90
64499;SHT31;51087;55.718;21.122;2023-06-05T12:25:18;28.41;32.94
64499;SHT31;51087;55.718;21.122;2023-06-05T12:27:43;28.40;31.01
64499;SHT31;51087;55.718;21.122;2023-06-05T12:30:11;27.69;31.75
64499;SHT31;51087;55.718;21.122;2023-06-05T12:32:37;28.24;31.95
64499;SHT31;51087;55.718;21.122;2023-06-05T12:35:05;28.60;30.62
64499;SHT31;51087;55.718;21.122;2023-06-05T12:37:32;30.44;29.98
64499;SHT31;51087;55.718;21.122;2023-06-05T12:40:04;28.48;30.93
64499;SHT31;51087;55.718;21.122;2023-06-05T12:42:36;28.06;33.53
64499;SHT31;51087;55.718;21.122;2023-06-05T12:45:02;27.38;34.67
64499;SHT31;51087;55.718;21.122;2023-06-05T12:47:27;27.98;32.65
64499;SHT31;51087;55.718;21.122;2023-06-05T12:49:53;27.11;34.37
64499;SHT31;51087;55.718;21.122;2023-06-05T12:52:18;29.53;30.91
64499;SHT31;51087;55.718;21.122;2023-06-05T12:54:50;27.85;32.70
64499;SHT31;51087;55.718;21.122;2023-06-05T12:57:16;31.04;28.85
64499;SHT31;51087;55.718;21.122;2023-06-05T12:59:41;28.18;31.19
64499;SHT31;51087;55.718;21.122;2023-06-05T13:02:07;28.20;31.74
64499;SHT31;51087;55.718;21.122;2023-06-05T13:04:33;28.94;30.04
64499;SHT31;51087;55.718;21.122;2023-06-05T13:06:59;28.33;31.84
64499;SHT31;51087;55.718;21.122;2023-06-05T13:09:24;29.86;30.54
64499;SHT31;51087;55.718;21.122;2023-06-05T13:11:50;30.80;28.53
64499;SHT31;51087;55.718;21.122;2023-06-05T13:14:15;29.27;30.33
64499;SHT31;51087;55.718;21.122;2023-06-05T13:16:41;29.70;28.95
64499;SHT31;51087;55.718;21.122;2023-06-05T13:19:06;30.99;28.14
64499;SHT31;51087;55.718;21.122;2023-06-05T13:21:32;29.82;29.33
64499;SHT31;51087;55.718;21.122;2023-06-05T13:23:58;29.67;29.25
64499;SHT31;51087;55.718;21.122;2023-06-05T13:26:24;28.91;31.00
64499;SHT31;51087;55.718;21.122;2023-06-05T13:28:50;30.30;28.72
64499;SHT31;51087;55.718;21.122;2023-06-05T13:31:15;30.81;29.22
64499;SHT31;51087;55.718;21.122;2023-06-05T13:33:41;28.64;31.30
64499;SHT31;51087;55.718;21.122;2023-06-05T13:36:10;28.27;31.64
64499;SHT31;51087;55.718;21.122;2023-06-05T13:38:35;30.02;30.83
64499;SHT31;51087;55.718;21.122;2023-06-05T13:41:04;29.30;30.95
64499;SHT31;51087;55.718;21.122;2023-06-05T13:43:30;30.96;29.24
64499;SHT31;51087;55.718;21.122;2023-06-05T13:45:57;29.84;29.69
64499;SHT31;51087;55.718;21.122;2023-06-05T13:48:22;30.44;28.61
64499;SHT31;51087;55.718;21.122;2023-06-05T13:50:48;32.80;27.38
64499;SHT31;51087;55.718;21.122;2023-06-05T13:53:13;32.24;26.84
64499;SHT31;51087;55.718;21.122;2023-06-05T13:55:38;32.38;27.01
64499;SHT31;51087;55.718;21.122;2023-06-05T13:58:05;29.81;29.69
64499;SHT31;51087;55.718;21.122;2023-06-05T14:00:31;28.64;30.10
64499;SHT31;51087;55.718;21.122;2023-06-05T14:02:57;28.54;30.79
64499;SHT31;51087;55.718;21.122;2023-06-05T14:05:23;27.82;32.09
64499;SHT31;51087;55.718;21.122;2023-06-05T14:07:50;27.41;32.10
64499;SHT31;51087;55.718;21.122;2023-06-05T14:10:18;28.27;31.51
64499;SHT31;51087;55.718;21.122;2023-06-05T14:12:46;29.20;30.29
64499;SHT31;51087;55.718;21.122;2023-06-05T14:15:11;28.64;30.81
64499;SHT31;51087;55.718;21.122;2023-06-05T14:17:37;28.32;31.08
64499;SHT31;51087;55.718;21.122;2023-06-05T14:20:02;27.31;32.58
64499;SHT31;51087;55.718;21.122;2023-06-05T14:22:28;27.85;31.88
64499;SHT31;51087;55.718;21.122;2023-06-05T14:24:53;29.15;31.16
64499;SHT31;51087;55.718;21.122;2023-06-05T14:27:19;28.68;31.12
64499;SHT31;51087;55.718;21.122;2023-06-05T14:29:44;30.23;29.60
64499;SHT31;51087;55.718;21.122;2023-06-05T14:32:10;30.12;28.37
64499;SHT31;51087;55.718;21.122;2023-06-05T14:34:35;29.78;28.40
64499;SHT31;51087;55.718;21.122;2023-06-05T14:37:01;29.10;28.80
64499;SHT31;51087;55.718;21.122;2023-06-05T14:39:27;29.34;29.03
64499;SHT31;51087;55.718;21.122;2023-06-05T14:41:53;28.94;29.64
64499;SHT31;51087;55.718;21.122;2023-06-05T14:44:18;29.23;29.23
64499;SHT31;51087;55.718;21.122;2023-06-05T14:46:43;28.47;29.97
64499;SHT31;51087;55.718;21.122;2023-06-05T14:49:10;28.10;30.43
64499;SHT31;51087;55.718;21.122;2023-06-05T14:51:37;28.30;30.73
64499;SHT31;51087;55.718;21.122;2023-06-05T14:54:03;28.09;30.06
64499;SHT31;51087;55.718;21.122;2023-06-05T14:56:28;27.79;31.14
64499;SHT31;51087;55.718;21.122;2023-06-05T14:58:54;28.10;30.63
64499;SHT31;51087;55.718;21.122;2023-06-05T15:01:20;30.26;29.53
64499;SHT31;51087;55.718;21.122;2023-06-05T15:03:45;30.29;28.26
64499;SHT31;51087;55.718;21.122;2023-06-05T15:06:11;29.98;28.47
64499;SHT31;51087;55.718;21.122;2023-06-05T15:08:36;28.65;29.72
64499;SHT31;51087;55.718;21.122;2023-06-05T15:11:01;29.61;29.18
64499;SHT31;51087;55.718;21.122;2023-06-05T15:13:27;29.68;28.75
64499;SHT31;51087;55.718;21.122;2023-06-05T15:15:53;28.54;29.16
64499;SHT31;51087;55.718;21.122;2023-06-05T15:18:18;28.33;29.81
64499;SHT31;51087;55.718;21.122;2023-06-05T15:20:43;29.20;29.33
64499;SHT31;51087;55.718;21.122;2023-06-05T15:23:09;29.29;28.51
64499;SHT31;51087;55.718;21.122;2023-06-05T15:25:34;28.99;29.27
64499;SHT31;51087;55.718;21.122;2023-06-05T15:28:03;28.27;29.78
64499;SHT31;51087;55.718;21.122;2023-06-05T15:30:29;28.75;29.67
64499;SHT31;51087;55.718;21.122;2023-06-05T15:32:54;27.50;31.19
64499;SHT31;51087;55.718;21.122;2023-06-05T15:35:20;27.18;31.67
64499;SHT31;51087;55.718;21.122;2023-06-05T15:37:45;27.14;32.33
64499;SHT31;51087;55.718;21.122;2023-06-05T15:40:10;26.80;31.90
64499;SHT31;51087;55.718;21.122;2023-06-05T15:42:37;28.61;31.00
64499;SHT31;51087;55.718;21.122;2023-06-05T15:47:32;29.20;29.29
64499;SHT31;51087;55.718;21.122;2023-06-05T15:49:58;28.76;29.77
64499;SHT31;51087;55.718;21.122;2023-06-05T15:52:23;27.52;30.49
64499;SHT31;51087;55.718;21.122;2023-06-05T15:54:48;27.08;31.23